createdAt,value
2022-09-13T00:00:43.526Z,1.40
2022-09-13T00:03:13.905Z,2.08
2022-09-13T00:05:43.662Z,1.20
2022-09-13T00:08:13.549Z,1.63
2022-09-13T00:10:44.466Z,1.37
2022-09-13T00:15:49.127Z,1.72
2022-09-13T00:18:20.298Z,1.82
2022-09-13T00:20:49.958Z,1.70
2022-09-13T00:23:19.453Z,1.60
2022-09-13T00:25:49.214Z,1.77
2022-09-13T00:28:19.014Z,1.60
2022-09-13T00:30:48.788Z,1.83
2022-09-13T00:33:18.294Z,2.43
2022-09-13T00:35:48.072Z,2.80
2022-09-13T00:38:17.563Z,3.67
2022-09-13T00:40:47.349Z,3.20
2022-09-13T00:43:22.217Z,3.60
2022-09-13T00:45:52.062Z,5.73
2022-09-13T00:48:23.492Z,4.27
2022-09-13T00:53:34.896Z,5.05
2022-09-13T00:56:10.531Z,5.13
2022-09-13T00:58:46.284Z,4.50
2022-09-13T01:01:18.319Z,5.03
2022-09-13T01:03:49.630Z,5.50
2022-09-13T01:06:22.460Z,4.78
2022-09-13T01:08:54.701Z,5.67
2022-09-13T01:11:30.545Z,6.70
2022-09-13T01:14:00.924Z,7.00
2022-09-13T01:16:31.138Z,8.13
2022-09-13T01:19:00.736Z,7.60
2022-09-13T01:21:54.893Z,7.03
2022-09-13T01:24:50.239Z,7.05
2022-09-13T01:27:28.578Z,6.80
2022-09-13T01:30:13.400Z,7.17
2022-09-13T01:32:58.247Z,5.67
2022-09-13T01:35:43.044Z,6.63
2022-09-13T01:38:33.613Z,6.03
2022-09-13T01:41:27.455Z,4.70
2022-09-13T01:44:04.056Z,4.20
2022-09-13T01:46:49.765Z,5.17
2022-09-13T01:49:46.921Z,5.13
2022-09-13T01:52:36.396Z,4.77
2022-09-13T01:55:15.723Z,4.87
2022-09-13T01:57:51.558Z,5.00
2022-09-13T02:00:21.606Z,4.77
2022-09-13T02:03:00.182Z,4.13
2022-09-13T02:05:44.951Z,5.20
2022-09-13T02:08:20.560Z,5.40
2022-09-13T02:10:54.007Z,6.05
2022-09-13T02:13:26.525Z,5.37
2022-09-13T02:15:59.423Z,6.00
2022-09-13T02:18:35.004Z,6.33
2022-09-13T02:21:10.620Z,6.73
2022-09-13T02:23:46.028Z,5.10
2022-09-13T02:26:17.264Z,4.93
2022-09-13T02:28:50.339Z,4.70
2022-09-13T02:31:26.711Z,5.13
2022-09-13T02:33:59.517Z,5.50
2022-09-13T02:36:32.576Z,4.67
2022-09-13T02:39:05.741Z,4.80
2022-09-13T02:41:59.496Z,4.80
2022-09-13T02:44:41.126Z,5.23
2022-09-13T02:47:21.396Z,5.00
2022-09-13T02:50:19.291Z,5.70
2022-09-13T02:53:06.977Z,4.70
2022-09-13T02:55:46.003Z,4.23
2022-09-13T02:58:27.167Z,5.23
2022-09-13T03:00:56.474Z,4.57
2022-09-13T03:03:26.413Z,5.93
2022-09-13T03:05:56.229Z,5.23
2022-09-13T03:08:26.946Z,5.03
2022-09-13T03:11:02.302Z,5.53
2022-09-13T03:13:37.779Z,4.97
2022-09-13T03:16:27.983Z,5.17
2022-09-13T03:19:03.732Z,4.87
2022-09-13T03:21:39.590Z,5.27
2022-09-13T03:24:44.211Z,5.03
2022-09-13T03:27:29.189Z,5.20
2022-09-13T03:30:13.856Z,4.33
2022-09-13T03:32:55.477Z,5.40
2022-09-13T03:35:31.013Z,4.77
2022-09-13T03:38:12.220Z,5.60
2022-09-13T03:40:49.521Z,4.70
2022-09-13T03:43:39.118Z,4.65
2022-09-13T03:46:12.249Z,5.25
2022-09-13T03:48:44.312Z,4.60
2022-09-13T03:51:14.731Z,5.37
2022-09-13T03:53:59.547Z,5.07
2022-09-13T03:56:29.382Z,4.77
2022-09-13T03:58:59.450Z,5.28
2022-09-13T04:01:29.460Z,4.60
2022-09-13T04:03:59.555Z,5.28
2022-09-13T04:06:29.331Z,4.47
2022-09-13T04:09:00.460Z,4.47
2022-09-13T04:11:31.301Z,4.87
2022-09-13T04:14:01.100Z,4.08
2022-09-13T04:16:31.110Z,4.70
2022-09-13T04:19:00.945Z,4.17
2022-09-13T04:21:31.501Z,4.00
2022-09-13T04:24:00.964Z,4.40
2022-09-13T04:26:30.755Z,4.47
2022-09-13T04:29:00.597Z,4.43
2022-09-13T04:31:30.735Z,4.50
2022-09-13T04:34:00.687Z,3.60
2022-09-13T04:36:32.102Z,3.98
2022-09-13T04:39:02.523Z,3.50
2022-09-13T04:41:33.653Z,4.00
2022-09-13T04:44:04.062Z,4.20
2022-09-13T04:46:34.133Z,4.10
2022-09-13T04:49:03.973Z,4.03
2022-09-13T04:51:33.964Z,3.80
2022-09-13T04:54:04.458Z,3.90
2022-09-13T04:56:34.238Z,4.27
2022-09-13T04:59:04.485Z,3.85
2022-09-13T05:01:35.306Z,4.63
2022-09-13T05:04:06.703Z,4.00
2022-09-13T05:06:37.497Z,3.57
2022-09-13T05:09:07.820Z,4.12
2022-09-13T05:11:37.958Z,3.70
2022-09-13T05:14:07.576Z,3.23
2022-09-13T05:16:37.374Z,3.67
2022-09-13T05:19:07.297Z,3.23
2022-09-13T05:21:37.160Z,3.33
2022-09-13T05:24:07.125Z,3.50
2022-09-13T05:26:37.252Z,3.63
2022-09-13T05:29:06.961Z,4.57
2022-09-13T05:31:39.836Z,3.80
2022-09-13T05:34:14.760Z,3.60
2022-09-13T05:36:45.200Z,4.33
2022-09-13T05:41:49.828Z,3.63
2022-09-13T05:44:19.309Z,3.20
2022-09-13T05:46:50.100Z,3.97
2022-09-13T05:51:48.780Z,3.98
2022-09-13T05:54:23.061Z,4.00
2022-09-13T05:56:54.258Z,3.10
2022-09-13T05:59:23.841Z,3.40
2022-09-13T06:01:53.658Z,4.07
2022-09-13T06:04:23.848Z,3.70
2022-09-13T06:06:53.631Z,3.80
2022-09-13T06:09:23.488Z,4.15
2022-09-13T06:11:53.271Z,3.80
2022-09-13T06:14:22.873Z,4.13
2022-09-13T06:16:52.650Z,3.83
2022-09-13T06:19:22.254Z,6.50
2022-09-13T06:21:52.026Z,4.07
2022-09-13T06:24:21.526Z,4.33
2022-09-13T06:26:51.380Z,3.80
2022-09-13T06:29:21.272Z,4.55
2022-09-13T06:31:51.046Z,4.17
2022-09-13T06:34:20.632Z,4.20
2022-09-13T06:36:50.522Z,3.83
2022-09-13T06:39:20.159Z,3.47
2022-09-13T06:41:49.955Z,3.83
2022-09-13T06:44:21.173Z,3.63
2022-09-13T06:46:50.946Z,4.67
2022-09-13T06:49:20.606Z,3.53
2022-09-13T06:51:50.396Z,5.53
2022-09-13T06:54:19.987Z,3.53
2022-09-13T06:56:49.787Z,4.37
2022-09-13T06:59:19.622Z,2.92
2022-09-13T07:01:49.565Z,3.33
2022-09-13T07:04:19.898Z,3.13
2022-09-13T07:06:51.465Z,3.60
2022-09-13T07:09:22.611Z,2.77
2022-09-13T07:11:55.185Z,3.50
2022-09-13T07:14:27.142Z,4.20
2022-09-13T07:16:57.357Z,3.50
2022-09-13T07:22:09.834Z,4.70
2022-09-13T07:24:39.700Z,3.53
2022-09-13T07:27:09.498Z,3.40
2022-09-13T07:29:39.353Z,4.13
2022-09-13T07:32:09.148Z,3.17
2022-09-13T07:34:38.939Z,3.07
2022-09-13T07:37:08.748Z,2.60
2022-09-13T07:39:38.530Z,2.50
2022-09-13T07:42:08.311Z,2.93
2022-09-13T07:44:39.891Z,3.73
2022-09-13T07:47:09.687Z,2.77
2022-09-13T07:49:39.477Z,4.23
2022-09-13T07:52:09.137Z,3.03
2022-09-13T07:54:38.926Z,3.57
2022-09-13T07:57:09.236Z,3.57
2022-09-13T07:59:39.226Z,2.60
2022-09-13T08:02:10.935Z,3.60
2022-09-13T08:04:40.738Z,1.77
2022-09-13T08:07:10.465Z,1.47
2022-09-13T08:09:40.456Z,1.73
2022-09-13T08:12:09.935Z,1.43
2022-09-13T08:14:39.809Z,1.63
2022-09-13T08:17:10.572Z,1.30
2022-09-13T08:19:40.374Z,1.60
2022-09-13T08:22:10.212Z,1.10
2022-09-13T08:24:40.029Z,1.33
2022-09-13T08:27:09.498Z,1.30
2022-09-13T08:29:39.292Z,1.60
2022-09-13T08:32:08.808Z,1.80
2022-09-13T08:34:38.603Z,1.60
2022-09-13T08:37:08.337Z,1.00
2022-09-13T08:39:38.454Z,1.50
2022-09-13T08:42:26.471Z,1.30
2022-09-13T08:44:58.922Z,1.10
2022-09-13T08:47:55.064Z,1.70
2022-09-13T08:50:31.056Z,1.07
2022-09-13T08:53:09.812Z,0.70
2022-09-13T08:55:54.389Z,1.50
2022-09-13T08:58:55.845Z,1.33
2022-09-13T09:01:31.589Z,1.20
2022-09-13T09:04:29.254Z,1.30
2022-09-13T09:07:10.699Z,1.10
2022-09-13T09:09:46.738Z,0.90
2022-09-13T09:12:21.975Z,0.60
2022-09-13T09:15:11.625Z,0.85
2022-09-13T09:18:02.674Z,0.72
2022-09-13T09:20:44.317Z,0.95
2022-09-13T09:23:26.225Z,0.75
2022-09-13T09:26:00.415Z,1.03
2022-09-13T09:28:31.563Z,0.77
2022-09-13T09:31:07.234Z,1.00
2022-09-13T09:34:13.731Z,1.23
2022-09-13T09:36:48.945Z,0.98
2022-09-13T09:39:18.757Z,1.13
2022-09-13T09:41:48.706Z,1.20
2022-09-13T09:44:27.494Z,1.47
2022-09-13T09:47:02.839Z,0.80
2022-09-13T09:49:56.526Z,1.00
2022-09-13T09:52:49.467Z,0.63
2022-09-13T09:55:31.555Z,1.10
2022-09-13T09:58:08.190Z,1.20
2022-09-13T10:00:41.172Z,1.10
2022-09-13T10:03:13.880Z,0.82
2022-09-13T10:05:44.789Z,0.80
2022-09-13T10:08:35.413Z,0.90
2022-09-13T10:11:08.219Z,1.48
2022-09-13T10:13:38.870Z,1.10
2022-09-13T10:16:26.535Z,0.80
2022-09-13T10:18:58.290Z,0.87
2022-09-13T10:21:29.081Z,1.20
2022-09-13T10:24:02.074Z,0.95
2022-09-13T10:26:34.387Z,0.90
2022-09-13T10:29:16.180Z,1.60
2022-09-13T10:31:50.166Z,1.10
2022-09-13T10:34:31.988Z,2.20
2022-09-13T10:37:17.711Z,3.93
2022-09-13T10:39:53.468Z,5.13
2022-09-13T10:42:26.238Z,4.23
2022-09-13T10:45:05.206Z,2.57
2022-09-13T10:47:41.656Z,1.72
2022-09-13T10:50:22.913Z,1.87
2022-09-13T10:52:57.457Z,1.03
2022-09-13T10:55:32.987Z,0.90
2022-09-13T10:58:13.594Z,1.07
2022-09-13T11:00:58.858Z,1.47
2022-09-13T11:03:53.148Z,1.37
2022-09-13T11:06:43.793Z,0.90
2022-09-13T11:09:16.706Z,0.90
2022-09-13T11:11:52.006Z,1.05
2022-09-13T11:14:39.189Z,1.00
2022-09-13T11:17:19.247Z,0.97
2022-09-13T11:20:27.270Z,1.23
2022-09-13T11:23:27.844Z,1.60
2022-09-13T11:26:09.176Z,1.20
2022-09-13T11:29:01.940Z,0.70
2022-09-13T11:31:49.851Z,0.87
2022-09-13T11:34:28.920Z,0.90
2022-09-13T11:37:10.759Z,1.20
2022-09-13T11:39:52.303Z,1.57
2022-09-13T11:42:49.142Z,1.50
2022-09-13T11:45:31.579Z,0.70
2022-09-13T11:48:08.717Z,0.80
2022-09-13T11:50:59.615Z,0.90
2022-09-13T11:53:48.868Z,1.00
2022-09-13T11:56:21.563Z,1.10
2022-09-13T11:58:57.640Z,0.85
2022-09-13T12:01:30.487Z,1.40
2022-09-13T12:04:09.031Z,1.10
2022-09-13T12:06:44.521Z,1.87
2022-09-13T12:09:22.931Z,1.37
2022-09-13T12:12:00.981Z,0.88
2022-09-13T12:14:34.181Z,1.20
2022-09-13T12:17:06.936Z,1.15
2022-09-13T12:19:49.734Z,1.00
2022-09-13T12:22:20.955Z,1.53
2022-09-13T12:24:53.559Z,1.02
2022-09-13T12:27:34.411Z,1.37
2022-09-13T12:30:12.756Z,1.30
2022-09-13T12:32:47.844Z,1.07
2022-09-13T12:35:20.390Z,1.17
2022-09-13T12:38:18.991Z,1.00
2022-09-13T12:41:03.477Z,1.20
2022-09-13T12:43:45.046Z,1.00
2022-09-13T12:46:23.191Z,1.53
2022-09-13T12:48:58.607Z,1.10
2022-09-13T12:51:43.308Z,1.17
2022-09-13T12:54:31.667Z,1.90
2022-09-13T12:57:23.456Z,1.40
2022-09-13T13:00:02.554Z,1.50
2022-09-13T13:02:35.401Z,1.33
2022-09-13T13:05:33.555Z,1.07
2022-09-13T13:08:09.338Z,1.50
2022-09-13T13:10:40.341Z,0.62
2022-09-13T13:13:19.718Z,0.98
2022-09-13T13:15:52.838Z,1.10
2022-09-13T13:18:34.491Z,0.90
2022-09-13T13:21:34.238Z,1.17
2022-09-13T13:24:22.739Z,0.97
2022-09-13T13:26:55.293Z,1.05
2022-09-13T13:29:32.896Z,1.50
2022-09-13T13:32:07.888Z,0.87
2022-09-13T13:34:40.909Z,1.23
2022-09-13T13:37:13.586Z,1.37
2022-09-13T13:39:49.493Z,1.03
2022-09-13T13:42:27.247Z,0.90
2022-09-13T13:45:00.101Z,1.30
2022-09-13T13:47:32.817Z,1.00
2022-09-13T13:50:18.110Z,1.30
2022-09-13T13:52:56.830Z,1.67
2022-09-13T13:55:33.686Z,1.00
2022-09-13T13:58:27.417Z,1.43
2022-09-13T14:00:59.117Z,1.20
2022-09-13T14:03:43.790Z,1.13
2022-09-13T14:06:42.406Z,0.80
2022-09-13T14:09:17.658Z,1.60
2022-09-13T14:12:16.442Z,0.90
2022-09-13T14:15:13.146Z,0.70
2022-09-13T14:18:05.831Z,1.00
2022-09-13T14:20:35.604Z,1.30
2022-09-13T14:23:19.798Z,1.10
2022-09-13T14:25:58.494Z,1.23
2022-09-13T14:28:29.318Z,0.97
2022-09-13T14:31:00.350Z,0.93
2022-09-13T14:36:10.070Z,0.85
2022-09-13T14:38:42.942Z,1.13
2022-09-13T14:41:21.314Z,0.80
2022-09-13T14:43:51.251Z,0.90
2022-09-13T14:46:35.883Z,0.97
2022-09-13T14:49:10.009Z,1.10
2022-09-13T14:51:48.706Z,0.72
2022-09-13T14:54:27.021Z,0.90
2022-09-13T14:57:02.548Z,0.70
2022-09-13T14:59:44.517Z,1.10
2022-09-13T15:02:26.411Z,1.27
2022-09-13T15:04:59.345Z,0.90
2022-09-13T15:07:35.264Z,1.35
2022-09-13T15:10:13.026Z,1.23
2022-09-13T15:12:58.286Z,1.60
2022-09-13T15:15:39.814Z,2.63
2022-09-13T15:18:23.117Z,1.80
2022-09-13T15:21:04.932Z,1.40
2022-09-13T15:23:38.749Z,1.47
2022-09-13T15:26:11.431Z,0.90
2022-09-13T15:28:54.616Z,1.00
2022-09-13T15:31:25.902Z,1.20
2022-09-13T15:34:21.113Z,0.93
2022-09-13T15:37:02.597Z,1.30
2022-09-13T15:39:48.467Z,2.03
2022-09-13T15:42:18.995Z,1.00
2022-09-13T15:44:48.953Z,1.12
2022-09-13T15:47:22.435Z,1.02
2022-09-13T15:49:53.353Z,0.77
2022-09-13T15:52:24.031Z,0.90
2022-09-13T15:57:25.577Z,1.10
2022-09-13T16:00:01.501Z,1.20
2022-09-13T16:02:36.009Z,1.12
2022-09-13T16:05:08.703Z,1.60
2022-09-13T16:07:38.955Z,0.87
2022-09-13T16:10:20.377Z,1.47
2022-09-13T16:12:51.911Z,1.07
2022-09-13T16:15:21.545Z,1.00
2022-09-13T16:17:51.325Z,1.17
2022-09-13T16:20:21.040Z,1.10
2022-09-13T16:22:50.912Z,0.90
2022-09-13T16:25:20.416Z,1.30
2022-09-13T16:27:51.080Z,1.07
2022-09-13T16:30:22.292Z,2.87
2022-09-13T16:32:52.243Z,1.40
2022-09-13T16:35:21.737Z,1.63
2022-09-13T16:37:52.487Z,1.13
2022-09-13T16:40:22.550Z,1.55
2022-09-13T16:42:52.284Z,0.93
2022-09-13T16:45:22.127Z,1.07
2022-09-13T16:47:52.211Z,1.42
2022-09-13T16:50:21.717Z,1.10
2022-09-13T16:52:51.519Z,1.57
2022-09-13T16:55:21.008Z,1.27
2022-09-13T16:57:52.465Z,1.33
2022-09-13T17:00:24.002Z,1.57
2022-09-13T17:02:54.238Z,0.90
2022-09-13T17:05:26.139Z,1.13
2022-09-13T17:07:56.351Z,1.30
2022-09-13T17:10:26.682Z,1.67
2022-09-13T17:12:56.644Z,1.30
2022-09-13T17:15:26.981Z,1.40
2022-09-13T17:17:57.547Z,1.50
2022-09-13T17:22:57.273Z,1.30
2022-09-13T17:25:27.712Z,1.53
2022-09-13T17:27:58.518Z,1.72
2022-09-13T17:30:28.633Z,1.50
2022-09-13T17:33:00.535Z,1.92
2022-09-13T17:35:30.766Z,1.27
2022-09-13T17:38:02.197Z,1.70
2022-09-13T17:43:02.371Z,1.30
2022-09-13T17:45:32.929Z,2.03
2022-09-13T17:50:33.472Z,1.32
2022-09-13T17:53:05.488Z,1.73
2022-09-13T17:55:36.145Z,2.47
2022-09-13T17:58:07.172Z,1.62
2022-09-13T18:00:37.525Z,1.77
2022-09-13T18:03:07.900Z,1.47
2022-09-13T18:05:38.442Z,1.55
2022-09-13T18:08:08.795Z,1.90
2022-09-13T18:10:58.445Z,1.87
2022-09-13T18:13:14.164Z,1.13
2022-09-13T18:15:44.873Z,1.67
2022-09-13T18:18:15.490Z,1.70
2022-09-13T18:20:48.828Z,1.37
2022-09-13T18:23:19.432Z,1.33
2022-09-13T18:26:10.687Z,1.25
2022-09-13T18:28:39.621Z,1.40
2022-09-13T18:31:12.100Z,1.63
2022-09-13T18:33:43.651Z,1.53
2022-09-13T18:36:19.837Z,1.33
2022-09-13T18:38:51.168Z,2.03
2022-09-13T18:41:29.053Z,1.77
2022-09-13T18:44:00.224Z,2.20
2022-09-13T18:46:32.324Z,2.60
2022-09-13T18:49:03.853Z,2.27
2022-09-13T18:51:40.155Z,2.25
2022-09-13T18:54:16.468Z,2.27
2022-09-13T18:56:48.127Z,2.43
2022-09-13T18:59:18.235Z,2.70
2022-09-13T19:01:49.484Z,2.80
2022-09-13T19:04:21.641Z,2.93
2022-09-13T19:06:58.483Z,2.13
2022-09-13T19:09:29.311Z,2.22
2022-09-13T19:11:59.469Z,2.60
2022-09-13T19:14:32.685Z,1.60
2022-09-13T19:17:06.599Z,2.30
2022-09-13T19:19:37.235Z,2.02
2022-09-13T19:22:08.220Z,1.40
2022-09-13T19:24:39.001Z,1.73
2022-09-13T19:27:09.890Z,1.22
2022-09-13T19:29:41.084Z,1.57
2022-09-13T19:32:11.727Z,1.76
2022-09-13T19:34:41.844Z,1.63
2022-09-13T19:37:12.492Z,1.40
2022-09-13T19:39:42.937Z,2.20
2022-09-13T19:42:13.315Z,2.50
2022-09-13T19:44:43.325Z,2.08
2022-09-13T19:49:45.135Z,1.47
2022-09-13T19:52:15.347Z,1.77
2022-09-13T19:54:45.219Z,1.67
2022-09-13T19:57:14.928Z,2.07
2022-09-13T19:59:44.981Z,1.93
2022-09-13T20:02:15.237Z,1.95
2022-09-13T20:04:47.394Z,1.80
2022-09-13T20:07:17.313Z,1.70
2022-09-13T20:09:47.296Z,1.37
2022-09-13T20:12:17.626Z,1.83
2022-09-13T20:14:48.023Z,1.80
2022-09-13T20:17:17.514Z,1.93
2022-09-13T20:19:50.147Z,2.10
2022-09-13T20:22:18.595Z,2.23
2022-09-13T20:24:48.720Z,2.00
2022-09-13T20:27:18.223Z,2.80
2022-09-13T20:29:48.021Z,2.53
2022-09-13T20:32:17.532Z,1.93
2022-09-13T20:34:50.050Z,2.03
2022-09-13T20:37:20.463Z,2.20
2022-09-13T20:39:50.878Z,1.77
2022-09-13T20:42:20.757Z,1.90
2022-09-13T20:44:50.549Z,1.73
2022-09-13T20:47:20.339Z,2.10
2022-09-13T20:49:50.125Z,2.07
2022-09-13T20:52:19.992Z,1.92
2022-09-13T20:54:49.742Z,2.30
2022-09-13T20:57:19.511Z,2.22
2022-09-13T20:59:49.348Z,2.07
2022-09-13T21:02:19.837Z,1.60
2022-09-13T21:04:49.378Z,2.05
2022-09-13T21:07:37.054Z,2.05
2022-09-13T21:10:07.398Z,2.33
2022-09-13T21:12:37.743Z,2.07
2022-09-13T21:15:07.648Z,2.07
2022-09-13T21:17:37.628Z,1.70
2022-09-13T21:20:07.655Z,2.30
2022-09-13T21:22:37.448Z,1.90
2022-09-13T21:25:08.189Z,2.27
2022-09-13T21:27:37.970Z,2.17
2022-09-13T21:30:08.737Z,1.80
2022-09-13T21:32:38.602Z,2.10
2022-09-13T21:35:09.006Z,1.93
2022-09-13T21:37:38.795Z,2.20
2022-09-13T21:40:09.325Z,1.97
2022-09-13T21:42:39.160Z,2.02
2022-09-13T21:45:09.659Z,1.50
2022-09-13T21:47:39.201Z,2.60
2022-09-13T21:50:10.003Z,2.57
2022-09-13T21:52:40.443Z,2.12
2022-09-13T21:55:10.555Z,2.13
2022-09-13T21:57:40.398Z,2.03
2022-09-13T22:00:11.939Z,1.73
2022-09-13T22:02:42.839Z,2.85
2022-09-13T22:05:12.603Z,2.33
2022-09-13T22:07:42.674Z,1.82
2022-09-13T22:10:12.486Z,2.67
2022-09-13T22:12:42.265Z,2.00
2022-09-13T22:15:12.178Z,2.00
2022-09-13T22:17:41.950Z,2.43
2022-09-13T22:20:11.830Z,2.30
2022-09-13T22:22:41.748Z,2.27
2022-09-13T22:25:11.980Z,3.00
2022-09-13T22:27:41.705Z,2.57
2022-09-13T22:30:12.379Z,2.63
2022-09-13T22:32:42.350Z,2.37
2022-09-13T22:35:12.223Z,1.80
2022-09-13T22:37:42.934Z,2.10
2022-09-13T22:40:13.078Z,2.42
2022-09-13T22:42:42.864Z,2.43
2022-09-13T22:45:12.549Z,2.07
2022-09-13T22:47:42.346Z,2.20
2022-09-13T22:50:12.067Z,2.40
2022-09-13T22:52:41.918Z,2.40
2022-09-13T22:55:11.542Z,2.40
2022-09-13T22:57:41.390Z,2.17
2022-09-13T23:00:12.111Z,3.43
2022-09-13T23:05:12.297Z,1.95
2022-09-13T23:07:42.071Z,2.57
2022-09-13T23:10:11.582Z,3.27
2022-09-13T23:12:41.358Z,2.70
2022-09-13T23:15:11.278Z,2.87
2022-09-13T23:17:41.050Z,2.80
2022-09-13T23:20:11.319Z,2.73
2022-09-13T23:22:42.047Z,2.62
2022-09-13T23:25:12.527Z,2.80
2022-09-13T23:27:42.280Z,3.23
2022-09-13T23:30:12.483Z,2.87
2022-09-13T23:32:42.146Z,2.67
2022-09-13T23:35:12.106Z,3.13
2022-09-13T23:37:41.875Z,3.13
2022-09-13T23:40:11.702Z,2.63
2022-09-13T23:42:41.478Z,3.27
2022-09-13T23:45:12.140Z,3.03
2022-09-13T23:47:41.910Z,2.50
2022-09-13T23:50:11.863Z,2.50
2022-09-13T23:52:41.689Z,2.90
2022-09-13T23:55:13.179Z,2.47
2022-09-13T23:57:42.954Z,2.50
